Time;durP1;ratioP1;P1;durP2;ratioP2;P2;SDS_P1;SDS_P2;PMS_P1;PMS_P2;Temp;Humidity;BMP_temperature;BMP_pressure;BME280_temperature;BME280_humidity;BME280_pressure;Samples;Min_cycle;Max_cycle;Signal;HPM_P1;HPM_P2
2021/04/01 00:01:16;;;;;;;12.20;8.20;;;16.60;22.50;;;;;;5073381;28;20171;-69
2021/04/01 00:03:45;;;;;;;8.53;6.77;;;16.50;22.70;;;;;;5072405;28;20187;-68
2021/04/01 00:06:12;;;;;;;9.10;7.33;;;16.40;22.90;;;;;;5073164;28;20767;-68
2021/04/01 00:08:39;;;;;;;15.00;7.90;;;16.30;23.10;;;;;;5071937;28;20475;-67
2021/04/01 00:11:05;;;;;;;13.13;7.83;;;16.30;23.20;;;;;;5072243;28;20409;-68
2021/04/01 00:13:30;;;;;;;9.40;7.90;;;16.40;22.90;;;;;;5072942;28;20421;-67
2021/04/01 00:15:58;;;;;;;8.23;7.27;;;16.70;22.60;;;;;;5073158;28;20543;-67
2021/04/01 00:18:24;;;;;;;12.20;7.10;;;16.70;22.70;;;;;;5071658;28;20175;-69
2021/04/01 00:20:50;;;;;;;8.53;7.73;;;16.80;22.30;;;;;;5072711;28;20475;-69
2021/04/01 00:23:16;;;;;;;9.70;8.03;;;16.70;22.10;;;;;;5071667;28;20437;-68
2021/04/01 00:25:41;;;;;;;11.93;7.37;;;16.50;22.80;;;;;;5072138;28;20171;-67
2021/04/01 00:28:08;;;;;;;13.17;6.90;;;16.50;23.00;;;;;;5072622;28;20191;-66
2021/04/01 00:30:34;;;;;;;8.00;7.17;;;16.30;23.20;;;;;;5073056;28;20590;-67
2021/04/01 00:32:59;;;;;;;8.93;8.13;;;16.20;23.40;;;;;;5072050;28;20433;-67
2021/04/01 00:35:25;;;;;;;7.97;7.17;;;16.20;23.30;;;;;;5072665;28;20414;-66
2021/04/01 00:37:50;;;;;;;13.33;8.03;;;16.10;23.40;;;;;;5072097;28;20190;-67
2021/04/01 00:40:18;;;;;;;8.93;7.77;;;16.10;23.30;;;;;;5072220;28;20207;-66
2021/04/01 00:42:44;;;;;;;8.83;6.93;;;16.10;23.60;;;;;;5072368;28;20334;-68
2021/04/01 00:45:11;;;;;;;10.67;7.30;;;16.10;23.50;;;;;;5071248;28;20496;-66
2021/04/01 00:47:39;;;;;;;8.10;7.37;;;16.10;23.50;;;;;;5071913;28;20642;-68
2021/04/01 00:50:07;;;;;;;8.33;7.53;;;16.00;23.90;;;;;;5071668;28;20517;-67
2021/04/01 00:52:33;;;;;;;9.63;8.43;;;15.90;23.40;;;;;;5072389;28;20429;-67
2021/04/01 00:55:00;;;;;;;9.43;7.40;;;15.90;23.80;;;;;;5072440;28;20416;-66
2021/04/01 00:57:26;;;;;;;9.27;8.37;;;16.10;23.80;;;;;;5071093;28;20206;-67
2021/04/01 00:59:52;;;;;;;8.73;7.87;;;16.20;23.30;;;;;;5071983;28;20469;-68
2021/04/01 01:02:18;;;;;;;12.67;7.17;;;16.20;23.10;;;;;;5072087;28;20792;-67
2021/04/01 01:04:43;;;;;;;8.87;7.33;;;16.10;23.40;;;;;;5071141;28;20187;-68
2021/04/01 01:07:09;;;;;;;7.43;6.73;;;15.90;23.70;;;;;;5071517;28;20175;-68
2021/04/01 01:09:34;;;;;;;8.80;7.33;;;15.80;24.30;;;;;;5072039;28;20172;-69
2021/04/01 01:12:00;;;;;;;8.13;7.43;;;15.80;24.20;;;;;;5071121;28;20247;-68
2021/04/01 01:14:26;;;;;;;8.47;7.60;;;15.80;24.20;;;;;;5071881;28;20281;-68
2021/04/01 01:16:52;;;;;;;8.47;7.67;;;15.70;23.90;;;;;;5071819;28;20186;-69
2021/04/01 01:19:17;;;;;;;9.37;7.70;;;15.70;24.30;;;;;;5069187;28;20593;-67
2021/04/01 01:21:44;;;;;;;8.47;7.57;;;15.70;24.20;;;;;;5071668;28;20488;-68
2021/04/01 01:24:14;;;;;;;7.73;6.83;;;15.80;23.90;;;;;;5071648;28;20187;-67
2021/04/01 01:26:41;;;;;;;9.33;8.40;;;15.80;23.80;;;;;;5070822;28;20417;-68
2021/04/01 01:29:08;;;;;;;7.60;6.90;;;15.80;24.10;;;;;;5070975;28;20398;-68
2021/04/01 01:31:38;;;;;;;7.07;6.30;;;15.70;24.10;;;;;;5071477;28;20420;-66
2021/04/01 01:34:03;;;;;;;7.73;6.70;;;15.70;24.30;;;;;;5070815;28;20486;-67
2021/04/01 01:36:29;;;;;;;7.90;7.10;;;15.70;24.70;;;;;;5071536;28;20410;-68
2021/04/01 01:38:54;;;;;;;7.70;6.13;;;15.70;24.30;;;;;;5070539;28;20207;-66
2021/04/01 01:41:20;;;;;;;7.67;6.90;;;15.60;23.90;;;;;;5070704;28;20174;-69
2021/04/01 01:43:46;;;;;;;8.70;7.63;;;15.60;24.10;;;;;;5071257;28;20281;-68
2021/04/01 01:46:11;;;;;;;7.13;6.53;;;15.50;24.20;;;;;;5071254;28;20172;-68
2021/04/01 01:48:37;;;;;;;9.77;6.50;;;15.60;24.30;;;;;;5069810;28;20654;-67
2021/04/01 01:51:02;;;;;;;8.30;7.60;;;15.50;24.20;;;;;;5071027;28;20183;-68
2021/04/01 01:53:28;;;;;;;10.73;6.70;;;15.40;24.50;;;;;;5071176;28;20187;-68
2021/04/01 01:55:54;;;;;;;9.27;8.37;;;15.50;24.60;;;;;;5070535;28;20182;-68
2021/04/01 01:58:21;;;;;;;9.20;7.17;;;15.60;24.60;;;;;;5070483;28;20176;-68
2021/04/01 02:00:50;;;;;;;9.23;7.73;;;15.70;24.20;;;;;;5070881;28;20203;-67
2021/04/01 02:03:17;;;;;;;10.47;8.40;;;15.80;24.20;;;;;;5070126;28;20850;-67
2021/04/01 02:05:43;;;;;;;9.40;7.33;;;15.70;24.30;;;;;;5071132;28;20451;-68
2021/04/01 02:08:11;;;;;;;8.70;7.60;;;15.60;24.50;;;;;;5070419;28;20414;-67
2021/04/01 02:10:42;;;;;;;7.77;7.13;;;15.50;24.60;;;;;;5069981;28;20417;-68
2021/04/01 02:13:08;;;;;;;11.03;7.60;;;15.40;24.60;;;;;;5070802;28;20789;-66
2021/04/01 02:15:40;;;;;;;9.03;7.50;;;15.30;25.10;;;;;;5070724;28;20398;-67
2021/04/01 02:18:16;;;;;;;10.30;7.87;;;15.30;25.20;;;;;;5069470;28;20792;-66
2021/04/01 02:20:46;;;;;;;7.63;6.93;;;15.20;24.90;;;;;;5070490;28;20459;-67
2021/04/01 02:23:13;;;;;;;7.67;6.37;;;15.20;25.30;;;;;;5070743;28;20436;-68
2021/04/01 02:25:40;;;;;;;8.10;7.40;;;15.30;25.10;;;;;;5069931;28;20410;-68
2021/04/01 02:28:07;;;;;;;9.90;7.50;;;15.40;24.80;;;;;;5070188;28;20413;-66
2021/04/01 02:30:33;;;;;;;8.07;7.40;;;15.50;24.70;;;;;;5070313;28;20752;-67
2021/04/01 02:33:26;;;;;;;11.20;7.73;;;15.40;24.60;;;;;;5069830;28;20785;-67
2021/04/01 02:35:53;;;;;;;7.17;6.50;;;15.40;24.80;;;;;;5070640;28;20410;-68
2021/04/01 02:38:19;;;;;;;7.60;6.87;;;15.30;24.90;;;;;;5069892;28;20455;-68
2021/04/01 02:40:46;;;;;;;8.37;7.00;;;15.10;25.10;;;;;;5069504;28;20488;-68
2021/04/01 02:43:15;;;;;;;8.00;7.20;;;15.00;25.10;;;;;;5070542;28;21011;-68
2021/04/01 02:45:40;;;;;;;8.13;7.10;;;15.00;25.30;;;;;;5070416;28;20175;-68
2021/04/01 02:48:06;;;;;;;7.83;7.03;;;15.00;25.50;;;;;;5069238;28;20410;-69
2021/04/01 02:50:32;;;;;;;8.70;7.20;;;15.00;25.40;;;;;;5070390;28;20210;-67
2021/04/01 02:52:57;;;;;;;8.13;7.20;;;15.00;25.30;;;;;;5070254;28;20449;-68
2021/04/01 02:55:23;;;;;;;7.60;6.90;;;15.00;25.30;;;;;;5069477;28;20182;-67
2021/04/01 02:57:49;;;;;;;8.00;7.30;;;15.00;25.70;;;;;;5069850;28;20264;-67
2021/04/01 03:00:19;;;;;;;9.63;7.10;;;15.00;25.50;;;;;;5070109;28;20210;-67
2021/04/01 03:02:50;;;;;;;10.33;7.40;;;14.90;25.50;;;;;;5069536;28;20573;-67
2021/04/01 03:05:16;;;;;;;8.43;7.63;;;15.00;25.40;;;;;;5070407;28;20746;-68
2021/04/01 03:07:42;;;;;;;8.50;7.67;;;15.00;25.60;;;;;;5069695;28;20428;-68
2021/04/01 03:10:11;;;;;;;12.57;8.63;;;14.90;25.50;;;;;;5069398;28;20175;-68
2021/04/01 03:12:37;;;;;;;10.33;7.50;;;14.90;25.20;;;;;;5070230;28;20190;-67
2021/04/01 03:15:05;;;;;;;14.00;7.67;;;14.80;26.40;;;;;;5070146;28;20413;-68
2021/04/01 03:17:31;;;;;;;8.17;7.47;;;15.00;26.10;;;;;;5068852;28;20245;-68
2021/04/01 03:19:56;;;;;;;7.83;7.13;;;15.20;25.70;;;;;;5070037;28;20453;-67
2021/04/01 03:22:22;;;;;;;7.93;7.10;;;15.10;25.70;;;;;;5070024;28;20242;-68
2021/04/01 03:24:48;;;;;;;9.73;7.00;;;15.10;25.70;;;;;;5069361;28;20213;-67
2021/04/01 03:27:14;;;;;;;8.53;7.60;;;15.00;25.60;;;;;;5069588;28;20414;-68
2021/04/01 03:29:39;;;;;;;8.23;7.00;;;14.60;26.30;;;;;;5069972;28;20488;-66
2021/04/01 03:32:05;;;;;;;8.07;7.37;;;14.60;26.30;;;;;;5069320;28;20258;-68
2021/04/01 03:34:30;;;;;;;8.87;7.93;;;14.70;26.50;;;;;;5070001;28;20290;-68
2021/04/01 03:36:56;;;;;;;7.77;6.97;;;14.70;26.40;;;;;;5069962;28;20233;-69
2021/04/01 03:39:22;;;;;;;12.47;7.70;;;14.70;26.40;;;;;;5068548;28;20211;-67
2021/04/01 03:41:48;;;;;;;9.37;7.90;;;14.80;26.40;;;;;;5070423;28;20160;-68
2021/04/01 03:44:13;;;;;;;8.00;7.17;;;14.60;26.30;;;;;;5073460;28;20798;-67
2021/04/01 03:46:39;;;;;;;8.00;7.20;;;14.60;26.60;;;;;;5072935;28;20167;-68
2021/04/01 03:49:05;;;;;;;7.57;6.83;;;14.70;26.40;;;;;;5072971;28;20179;-68
2021/04/01 03:51:30;;;;;;;8.03;7.33;;;14.80;26.40;;;;;;5073536;28;20250;-66
2021/04/01 03:53:56;;;;;;;7.60;6.87;;;15.00;26.30;;;;;;5072609;28;20707;-67
2021/04/01 03:56:22;;;;;;;8.30;7.20;;;15.10;25.80;;;;;;5073399;28;20175;-67
2021/04/01 04:12:19;;;;;;;11.53;8.00;;;14.80;26.30;;;;;;5050626;28;20502;-67
2021/04/01 04:15:30;;;;;;;13.07;7.93;;;14.90;26.10;;;;;;5062235;28;20218;-67
2021/04/01 04:17:31;;;;;;;12.33;7.57;;;14.80;26.10;;;;;;5068480;28;20485;-67
2021/04/01 04:19:56;;;;;;;8.43;7.50;;;14.70;26.40;;;;;;5072874;28;20980;-67
2021/04/01 04:22:22;;;;;;;9.03;8.23;;;14.80;26.50;;;;;;5072228;28;20216;-65
2021/04/01 04:24:48;;;;;;;9.23;8.43;;;14.90;26.30;;;;;;5072529;28;20175;-67
2021/04/01 04:28:05;;;;;;;9.67;8.20;;;15.00;26.20;;;;;;5072315;28;20172;-68
2021/04/01 04:30:04;;;;;;;10.70;7.53;;;14.90;26.10;;;;;;5068617;28;20490;-67
2021/04/01 04:32:31;;;;;;;11.53;9.10;;;15.00;25.90;;;;;;5072770;28;20485;-68
2021/04/01 04:34:57;;;;;;;8.87;7.97;;;14.90;25.80;;;;;;5072325;28;20463;-67
2021/04/01 04:37:24;;;;;;;12.27;8.30;;;15.00;25.90;;;;;;5070168;28;20426;-68
2021/04/01 04:39:49;;;;;;;13.13;8.20;;;15.00;25.90;;;;;;5072214;28;20461;-67
2021/04/01 04:42:15;;;;;;;9.13;8.07;;;14.80;26.20;;;;;;5072598;28;20841;-67
2021/04/01 04:44:41;;;;;;;8.83;7.90;;;14.70;26.40;;;;;;5071628;28;20199;-68
2021/04/01 04:47:07;;;;;;;8.07;7.30;;;14.70;26.40;;;;;;5071897;28;20875;-67
2021/04/01 04:49:32;;;;;;;8.37;7.47;;;14.90;26.40;;;;;;5072396;28;20205;-67
2021/04/01 04:51:58;;;;;;;9.23;8.30;;;14.90;26.20;;;;;;5071875;28;20203;-64
2021/04/01 04:54:27;;;;;;;20.53;17.93;;;14.70;26.40;;;;;;5071995;28;20211;-66
2021/04/01 04:56:53;;;;;;;14.53;9.40;;;14.70;26.40;;;;;;5072315;28;20472;-66
2021/04/01 04:59:32;;;;;;;8.90;8.00;;;14.70;26.50;;;;;;5071542;28;20445;-64
2021/04/01 05:04:47;;;;;;;12.57;8.00;;;14.70;26.20;;;;;;5072421;28;20404;-67
2021/04/01 05:07:13;;;;;;;11.20;7.30;;;14.70;26.40;;;;;;5070979;28;20418;-68
2021/04/01 05:09:38;;;;;;;10.10;7.83;;;14.70;26.50;;;;;;5071929;28;20787;-68
2021/04/01 05:12:05;;;;;;;11.67;8.73;;;14.70;26.40;;;;;;5071919;28;20539;-67
2021/04/01 05:14:30;;;;;;;10.10;9.07;;;14.40;26.80;;;;;;5071144;28;20195;-67
2021/04/01 05:16:56;;;;;;;13.03;8.23;;;14.60;26.80;;;;;;5069005;28;20485;-66
2021/04/01 05:19:23;;;;;;;9.47;7.53;;;14.70;26.40;;;;;;5051099;28;20191;-66
2021/04/01 05:24:17;;;;;;;9.80;8.00;;;14.80;26.10;;;;;;5050729;28;20787;-65
2021/04/01 05:29:22;;;;;;;10.40;9.40;;;14.70;26.40;;;;;;5050339;28;20414;-66
2021/04/01 05:31:49;;;;;;;9.87;8.33;;;14.60;26.40;;;;;;5051658;28;20415;-66
2021/04/01 05:34:15;;;;;;;12.80;8.47;;;14.60;26.50;;;;;;5051474;28;20462;-67
2021/04/01 05:36:42;;;;;;;12.00;8.97;;;14.60;26.70;;;;;;5050677;28;20449;-67
2021/04/01 05:39:29;;;;;;;10.43;8.70;;;14.70;26.40;;;;;;5050585;28;20207;-68
2021/04/01 05:41:56;;;;;;;10.80;8.90;;;14.60;26.40;;;;;;5050840;28;20386;-68
2021/04/01 05:47:31;;;;;;;14.70;9.03;;;14.40;27.10;;;;;;5016226;28;20421;-69
2021/04/01 06:05:48;;;;;;;10.07;8.73;;;14.50;27.60;;;;;;5050699;28;20415;-69
2021/04/01 06:08:17;;;;;;;10.20;7.07;;;14.50;27.90;;;;;;5050320;28;20429;-70
2021/04/01 06:10:44;;;;;;;10.73;8.20;;;14.50;27.40;;;;;;5051241;28;20781;-67
2021/04/01 06:13:12;;;;;;;9.30;8.40;;;14.70;32.50;;;;;;5051255;28;20453;-68
2021/04/01 06:15:39;;;;;;;8.07;7.13;;;15.00;26.60;;;;;;5050209;28;20934;-68
2021/04/01 06:18:10;;;;;;;18.70;9.17;;;15.10;29.10;;;;;;5049171;28;20830;-68
2021/04/01 06:20:37;;;;;;;11.00;7.83;;;15.10;26.70;;;;;;5050532;28;20462;-69
2021/04/01 06:23:03;;;;;;;11.20;8.50;;;15.30;27.60;;;;;;5049746;28;20431;-67
2021/04/01 06:25:35;;;;;;;11.20;7.63;;;15.80;28.00;;;;;;5050525;28;20398;-68
2021/04/01 06:28:02;;;;;;;9.23;8.40;;;15.90;29.80;;;;;;5049957;28;20406;-66
2021/04/01 06:30:42;;;;;;;10.60;8.17;;;15.80;26.20;;;;;;5049734;28;20406;-65
2021/04/01 06:33:10;;;;;;;10.40;8.13;;;15.40;26.80;;;;;;5050498;28;20993;-66
2021/04/01 06:35:50;;;;;;;11.53;7.77;;;15.30;27.80;;;;;;5049555;28;20929;-65
2021/04/01 06:40:52;;;;;;;8.93;7.47;;;15.20;26.70;;;;;;5050547;28;20465;-66
2021/04/01 06:43:17;;;;;;;15.37;9.57;;;15.40;29.10;;;;;;5049528;28;20445;-66
2021/04/01 06:45:56;;;;;;;15.87;8.90;;;15.50;26.40;;;;;;5050370;28;20563;-66
2021/04/01 06:48:27;;;;;;;13.77;9.10;;;15.70;25.60;;;;;;5049688;28;20212;-65
2021/04/01 06:51:08;;;;;;;11.90;9.23;;;15.10;25.80;;;;;;5049217;28;20422;-66
2021/04/01 06:53:56;;;;;;;15.33;9.90;;;15.20;27.30;;;;;;5050399;28;20517;-66
2021/04/01 06:56:29;;;;;;;12.13;9.00;;;15.50;25.80;;;;;;5050332;28;20421;-66
2021/04/01 06:59:21;;;;;;;17.70;10.00;;;15.50;26.90;;;;;;5048567;28;20421;-66
2021/04/01 07:04:36;;;;;;;15.70;10.13;;;16.30;25.40;;;;;;5070126;28;20463;-67
2021/04/01 07:07:13;;;;;;;17.77;13.33;;;16.10;24.10;;;;;;5069056;28;20906;-67
2021/04/01 07:09:56;;;;;;;16.50;11.13;;;16.00;24.50;;;;;;5068715;28;20409;-68
2021/04/01 07:12:29;;;;;;;20.03;10.00;;;15.60;24.40;;;;;;5069542;28;20412;-66
2021/04/01 07:14:59;;;;;;;11.27;10.17;;;15.70;24.70;;;;;;5069427;28;20433;-66
2021/04/01 07:17:31;;;;;;;22.10;10.30;;;15.80;25.10;;;;;;5072570;28;20402;-68
2021/04/01 07:23:12;;;;;;;14.73;9.57;;;15.80;25.10;;;;;;5073589;28;20469;-67
2021/04/01 07:48:15;;;;;;;14.80;10.37;;;16.20;24.60;;;;;;5056751;28;20417;-67
2021/04/01 07:50:43;;;;;;;19.73;11.13;;;16.40;24.40;;;;;;5072548;28;20409;-68
2021/04/01 07:53:13;;;;;;;16.70;11.23;;;16.40;24.10;;;;;;5073114;28;20440;-66
2021/04/01 07:59:19;;;;;;;13.60;10.07;;;16.80;24.10;;;;;;5072140;28;20489;-66
2021/04/01 08:04:26;;;;;;;11.63;9.07;;;16.90;23.70;;;;;;5072483;28;20421;-67
2021/04/01 08:06:51;;;;;;;17.17;10.33;;;16.90;24.10;;;;;;5073025;28;20406;-68
2021/04/01 08:09:23;;;;;;;17.47;9.83;;;17.00;23.90;;;;;;5072438;28;20915;-68
2021/04/01 08:11:52;;;;;;;10.73;9.40;;;17.10;24.10;;;;;;5072193;28;20247;-66
2021/04/01 08:14:30;;;;;;;14.43;10.43;;;17.10;23.90;;;;;;5073087;28;20429;-66
2021/04/01 08:17:06;;;;;;;18.43;10.00;;;17.20;24.00;;;;;;5073042;28;20402;-68
2021/04/01 08:19:35;;;;;;;30.73;21.60;;;17.20;23.70;;;;;;5072173;28;20464;-69
2021/04/01 08:22:05;;;;;;;18.57;11.87;;;17.30;24.00;;;;;;5073181;28;20402;-68
2021/04/01 08:24:40;;;;;;;18.07;11.20;;;17.40;23.70;;;;;;5072880;28;20432;-69
2021/04/01 08:27:30;;;;;;;20.27;10.43;;;17.40;23.50;;;;;;5071629;28;20455;-68
2021/04/01 08:35:26;;;;;;;15.70;10.00;;;17.50;23.00;;;;;;5072024;28;20429;-68
2021/04/01 08:40:24;;;;;;;10.97;9.63;;;17.60;22.70;;;;;;5072527;28;20568;-67
2021/04/01 08:43:11;;;;;;;12.93;10.10;;;17.70;23.10;;;;;;5071480;28;20461;-67
2021/04/01 08:46:08;;;;;;;12.50;11.20;;;17.80;22.70;;;;;;5072452;28;20404;-69
2021/04/01 08:48:37;;;;;;;17.67;10.90;;;17.80;22.90;;;;;;5055300;28;20419;-68
2021/04/01 08:51:08;;;;;;;15.27;10.10;;;17.90;22.80;;;;;;5071471;28;20441;-67
2021/04/01 08:53:41;;;;;;;13.90;10.70;;;18.00;22.50;;;;;;5072052;28;20487;-67
2021/04/01 08:56:30;;;;;;;13.90;10.23;;;18.20;22.80;;;;;;5072003;28;20410;-66
2021/04/01 08:59:15;;;;;;;11.30;10.10;;;18.20;22.80;;;;;;5071314;28;20777;-68
2021/04/01 09:01:42;;;;;;;14.53;9.80;;;18.40;23.30;;;;;;5071701;28;20433;-68
2021/04/01 09:04:09;;;;;;;10.90;9.53;;;18.50;22.80;;;;;;5071261;28;20457;-69
2021/04/01 09:06:39;;;;;;;43.80;13.77;;;18.60;22.50;;;;;;5072282;28;20406;-69
2021/04/01 09:09:14;;;;;;;13.57;8.97;;;18.80;23.10;;;;;;5071480;28;20441;-69
2021/04/01 09:11:56;;;;;;;12.63;8.40;;;18.90;22.50;;;;;;5069743;28;20977;-68
2021/04/01 09:14:25;;;;;;;13.53;8.33;;;19.00;23.00;;;;;;5071839;28;20512;-68
2021/04/01 09:17:06;;;;;;;13.47;9.60;;;19.10;22.20;;;;;;5071719;28;20485;-68
2021/04/01 09:19:32;;;;;;;13.97;9.20;;;19.20;22.20;;;;;;5070709;28;20457;-68
2021/04/01 09:21:58;;;;;;;14.73;9.03;;;19.20;22.00;;;;;;5071582;28;20419;-68
2021/04/01 09:24:34;;;;;;;17.27;9.07;;;19.30;21.70;;;;;;5071559;28;20422;-68
2021/04/01 09:27:00;;;;;;;12.17;10.50;;;19.30;21.70;;;;;;5070350;28;20168;-68
2021/04/01 09:29:26;;;;;;;11.63;10.30;;;19.40;22.10;;;;;;5071486;28;20888;-68
2021/04/01 09:31:59;;;;;;;15.70;9.10;;;19.40;22.30;;;;;;5071611;28;20517;-69
2021/04/01 09:34:25;;;;;;;41.13;12.30;;;19.50;22.40;;;;;;5070325;28;20843;-67
2021/04/01 09:36:51;;;;;;;11.50;8.33;;;19.60;22.50;;;;;;5071254;28;20445;-66
2021/04/01 09:39:28;;;;;;;19.70;15.10;;;19.60;21.70;;;;;;5070038;28;20457;-69
2021/04/01 09:42:03;;;;;;;169.27;131.43;;;19.70;21.50;;;;;;5070326;28;20415;-68
2021/04/01 09:44:28;;;;;;;11.90;9.50;;;19.80;21.50;;;;;;5071333;28;20483;-69
2021/04/01 09:47:31;;;;;;;9.07;8.17;;;19.90;21.40;;;;;;5071078;28;20398;-69
2021/04/01 09:50:02;;;;;;;11.60;9.03;;;20.00;21.70;;;;;;5058714;28;20183;-68
2021/04/01 09:52:29;;;;;;;15.67;14.10;;;20.10;21.80;;;;;;5071141;28;20417;-68
2021/04/01 09:55:07;;;;;;;15.97;12.07;;;20.20;21.40;;;;;;5070859;28;20479;-68
2021/04/01 09:57:48;;;;;;;17.00;10.20;;;20.30;21.20;;;;;;5069879;28;20413;-68
2021/04/01 10:03:02;;;;;;;14.17;9.57;;;20.50;20.20;;;;;;5070518;28;20875;-67
2021/04/01 10:05:36;;;;;;;15.90;8.97;;;20.60;20.10;;;;;;5070341;28;20443;-69
2021/04/01 10:08:03;;;;;;;21.63;8.70;;;20.80;20.30;;;;;;5070390;28;20410;-68
2021/04/01 10:10:34;;;;;;;13.87;8.97;;;21.00;19.60;;;;;;5069545;28;20951;-67
2021/04/01 10:12:59;;;;;;;12.67;8.03;;;21.00;19.40;;;;;;5071084;28;20433;-67
2021/04/01 10:15:29;;;;;;;14.30;9.40;;;21.10;19.30;;;;;;5070643;28;20845;-66
2021/04/01 10:17:56;;;;;;;12.00;8.17;;;21.30;19.70;;;;;;5069299;28;20193;-66
2021/04/01 10:20:22;;;;;;;14.33;9.17;;;21.40;19.20;;;;;;5070896;28;20480;-67
2021/04/01 10:22:48;;;;;;;10.07;7.30;;;21.60;19.30;;;;;;5070416;28;20438;-67
2021/04/01 10:25:28;;;;;;;15.33;6.83;;;21.70;18.70;;;;;;5069502;28;20402;-68
2021/04/01 10:30:23;;;;;;;12.10;6.70;;;22.00;18.70;;;;;;5069318;28;20425;-67
2021/04/01 10:33:33;;;;;;;7.47;6.30;;;22.00;17.90;;;;;;5049629;28;20462;-67
2021/04/01 10:36:02;;;;;;;7.40;4.90;;;22.20;17.60;;;;;;5064551;28;20417;-68
2021/04/01 10:38:28;;;;;;;9.20;6.50;;;22.40;17.10;;;;;;5069706;28;20440;-67
2021/04/01 10:40:56;;;;;;;8.33;5.63;;;22.50;17.80;;;;;;5069562;28;20457;-66
2021/04/01 10:43:30;;;;;;;7.00;6.30;;;22.60;16.50;;;;;;5070475;28;20501;-67
2021/04/01 10:46:00;;;;;;;9.30;6.57;;;22.70;16.80;;;;;;5070081;28;20416;-67
2021/04/01 10:48:36;;;;;;;8.60;6.03;;;22.90;16.40;;;;;;5069203;28;20810;-66
2021/04/01 10:51:04;;;;;;;9.17;6.03;;;22.90;16.40;;;;;;5070061;28;20401;-67
2021/04/01 10:53:31;;;;;;;8.27;7.40;;;23.00;16.20;;;;;;5070430;28;20465;-68
2021/04/01 10:56:05;;;;;;;8.23;6.53;;;23.10;16.30;;;;;;5061640;28;20414;-66
2021/04/01 10:58:31;;;;;;;10.67;6.00;;;23.20;17.30;;;;;;5058741;28;20408;-66
2021/04/01 11:00:59;;;;;;;5.97;5.50;;;23.20;15.70;;;;;;5058338;28;20995;-68
2021/04/01 11:03:36;;;;;;;6.20;5.53;;;23.30;16.20;;;;;;5058038;28;20435;-67
2021/04/01 11:06:04;;;;;;;7.80;4.97;;;23.30;16.90;;;;;;5059293;28;20489;-67
2021/04/01 11:08:39;;;;;;;7.03;6.30;;;23.40;15.70;;;;;;5060230;28;20405;-69
2021/04/01 11:11:07;;;;;;;8.07;6.70;;;23.50;15.50;;;;;;5057628;28;20396;-68
2021/04/01 11:13:42;;;;;;;5.57;5.03;;;23.60;15.50;;;;;;5057835;28;20457;-68
2021/04/01 11:16:10;;;;;;;4.73;4.33;;;23.60;15.50;;;;;;5058972;28;20431;-68
2021/04/01 11:18:44;;;;;;;9.53;4.80;;;23.70;15.40;;;;;;5057679;28;20458;-68
2021/04/01 11:21:13;;;;;;;5.70;4.40;;;23.70;15.60;;;;;;5057797;28;20464;-69
2021/04/01 11:23:38;;;;;;;10.73;4.87;;;23.80;15.70;;;;;;5059391;28;21143;-69
2021/04/01 11:26:04;;;;;;;5.30;4.70;;;23.90;15.40;;;;;;5059968;28;20518;-69
2021/04/01 11:28:37;;;;;;;4.97;4.40;;;24.00;15.20;;;;;;5057336;28;20257;-66
2021/04/01 11:31:04;;;;;;;7.57;4.30;;;24.10;15.10;;;;;;5058318;28;20417;-68
2021/04/01 11:33:30;;;;;;;5.87;4.57;;;24.10;15.10;;;;;;5056973;28;20531;-67
2021/04/01 11:36:09;;;;;;;7.47;5.03;;;24.10;15.00;;;;;;5058939;28;20853;-67
2021/04/01 11:38:45;;;;;;;6.53;4.10;;;24.20;14.70;;;;;;5057897;28;20434;-67
2021/04/01 11:41:22;;;;;;;9.73;4.17;;;24.20;14.70;;;;;;5058928;28;20449;-67
2021/04/01 11:43:52;;;;;;;7.30;4.50;;;24.20;14.60;;;;;;5059701;28;20472;-66
2021/04/01 11:46:22;;;;;;;4.37;3.83;;;24.30;14.80;;;;;;5058784;28;20895;-67
2021/04/01 11:48:49;;;;;;;7.97;4.87;;;24.50;14.40;;;;;;5059922;28;20467;-68
2021/04/01 11:51:19;;;;;;;5.07;4.57;;;24.30;13.90;;;;;;5058351;28;20460;-67
2021/04/01 11:53:45;;;;;;;4.67;3.50;;;24.50;13.80;;;;;;5057421;28;20436;-67
2021/04/01 11:56:11;;;;;;;4.33;3.87;;;24.70;13.70;;;;;;5057430;28;20771;-66
2021/04/01 11:58:37;;;;;;;5.00;4.30;;;24.80;13.80;;;;;;5058317;28;20418;-67
2021/04/01 12:01:10;;;;;;;6.87;4.07;;;24.70;13.50;;;;;;5059487;28;20465;-68
2021/04/01 12:03:51;;;;;;;5.63;4.60;;;24.60;13.40;;;;;;5059776;28;20188;-68
2021/04/01 12:06:17;;;;;;;5.10;4.40;;;24.40;13.80;;;;;;5062120;28;20402;-67
2021/04/01 12:08:43;;;;;;;7.07;4.30;;;24.30;13.60;;;;;;5060239;28;20414;-67
2021/04/01 12:11:09;;;;;;;9.80;4.13;;;24.30;13.90;;;;;;5062879;28;20417;-68
2021/04/01 12:13:35;;;;;;;6.00;4.43;;;24.10;13.60;;;;;;5061772;28;20521;-67
2021/04/01 12:16:00;;;;;;;5.10;4.70;;;24.10;13.90;;;;;;5060822;28;20661;-68
2021/04/01 12:18:38;;;;;;;7.33;4.20;;;24.00;14.20;;;;;;5060561;28;20266;-67
2021/04/01 12:21:04;;;;;;;6.10;4.43;;;23.90;14.20;;;;;;5062645;28;20210;-66
2021/04/01 12:23:51;;;;;;;4.63;4.10;;;23.70;14.30;;;;;;5059527;28;21025;-65
2021/04/01 12:26:17;;;;;;;6.27;4.53;;;23.80;14.80;;;;;;5061709;28;20402;-66
2021/04/01 12:28:53;;;;;;;6.67;3.73;;;23.80;14.40;;;;;;5060518;28;20943;-67
2021/04/01 12:31:31;;;;;;;5.50;4.40;;;23.70;14.40;;;;;;5061167;28;20414;-66
2021/04/01 12:33:57;;;;;;;4.30;4.00;;;23.70;14.50;;;;;;5057394;28;21142;-69
2021/04/01 12:36:40;;;;;;;6.03;4.30;;;23.70;14.80;;;;;;5051602;28;20414;-68
2021/04/01 12:39:09;;;;;;;4.70;4.23;;;23.60;14.30;;;;;;5059421;28;20253;-66
2021/04/01 12:41:42;;;;;;;8.20;4.90;;;23.60;14.50;;;;;;5054779;28;20426;-67
2021/04/01 12:44:08;;;;;;;10.63;4.53;;;23.60;14.70;;;;;;5052370;28;20439;-67
2021/04/01 12:46:42;;;;;;;5.40;4.30;;;23.50;15.20;;;;;;5057156;28;20411;-68
2021/04/01 12:49:11;;;;;;;6.73;4.00;;;23.40;14.30;;;;;;5057636;28;20179;-67
2021/04/01 12:51:44;;;;;;;7.20;5.30;;;23.50;14.50;;;;;;5051859;28;20414;-67
2021/04/01 12:54:14;;;;;;;9.17;4.37;;;23.40;15.20;;;;;;5051816;28;20427;-68
2021/04/01 12:56:44;;;;;;;6.93;4.20;;;23.40;14.40;;;;;;5052584;28;20418;-67
2021/04/01 13:01:43;;;;;;;12.53;5.23;;;23.30;13.70;;;;;;5051499;28;20469;-68
2021/04/01 13:04:11;;;;;;;4.17;3.87;;;23.40;14.00;;;;;;5052478;28;20732;-67
2021/04/01 13:06:44;;;;;;;5.00;4.50;;;23.30;13.60;;;;;;5053613;28;20407;-67
2021/04/01 13:11:49;;;;;;;5.90;3.97;;;23.20;13.40;;;;;;5052127;28;20409;-67
2021/04/01 13:14:15;;;;;;;20.83;5.33;;;23.20;13.20;;;;;;5068147;28;20441;-66
2021/04/01 13:16:41;;;;;;;4.90;4.30;;;23.10;13.10;;;;;;5069868;28;20461;-66
2021/04/01 13:19:07;;;;;;;5.33;4.03;;;23.10;13.50;;;;;;5056944;28;20462;-67
2021/04/01 13:26:41;;;;;;;5.23;4.73;;;22.90;14.30;;;;;;5051840;28;20476;-67
2021/04/01 13:29:10;;;;;;;4.30;4.00;;;22.90;14.60;;;;;;5051088;28;20410;-66
2021/04/01 13:32:03;;;;;;;4.63;4.17;;;22.90;15.10;;;;;;5070209;28;20417;-66
2021/04/01 13:37:22;;;;;;;4.90;3.80;;;22.70;14.90;;;;;;5071284;28;20489;-68
2021/04/01 13:39:52;;;;;;;7.73;4.80;;;22.70;14.90;;;;;;5070985;28;20465;-67
2021/04/01 13:42:22;;;;;;;6.50;4.70;;;22.70;15.40;;;;;;5071521;28;20406;-66
2021/04/01 13:47:19;;;;;;;5.33;4.17;;;22.60;14.60;;;;;;5070974;28;20819;-67
2021/04/01 13:49:48;;;;;;;10.33;4.20;;;22.60;15.10;;;;;;5071481;28;20780;-66
2021/04/01 13:54:49;;;;;;;14.77;10.93;;;22.50;14.20;;;;;;5069366;28;20425;-65
2021/04/01 13:57:48;;;;;;;7.07;6.00;;;22.50;14.80;;;;;;5056056;28;20803;-66
2021/04/01 14:00:31;;;;;;;5.00;4.50;;;22.50;14.10;;;;;;5070462;28;20499;-66
2021/04/01 14:11:37;;;;;;;4.87;4.47;;;22.40;14.70;;;;;;5056376;28;20424;-66
2021/04/01 14:14:03;;;;;;;4.57;4.27;;;22.40;14.70;;;;;;5050688;28;20644;-66
2021/04/01 14:16:29;;;;;;;8.00;4.70;;;22.40;15.40;;;;;;5050040;28;20426;-67
2021/04/01 14:18:55;;;;;;;5.70;4.60;;;22.30;14.90;;;;;;5049548;28;20410;-65
2021/04/01 14:21:22;;;;;;;5.10;4.60;;;22.30;14.60;;;;;;5065757;28;20202;-67
2021/04/01 14:23:50;;;;;;;8.03;4.70;;;22.20;14.60;;;;;;5070163;28;20432;-66
2021/04/01 14:28:44;;;;;;;5.50;5.10;;;22.20;14.60;;;;;;5049803;28;20818;-66
2021/04/01 14:31:10;;;;;;;8.83;5.70;;;22.20;14.80;;;;;;5065422;28;20421;-66
2021/04/01 14:33:38;;;;;;;8.27;5.97;;;22.20;15.10;;;;;;5059929;28;20211;-68
2021/04/01 14:36:05;;;;;;;7.90;5.70;;;22.20;15.20;;;;;;5050204;28;20417;-66
2021/04/01 14:38:33;;;;;;;7.20;6.50;;;22.20;15.10;;;;;;5049164;28;20438;-67
2021/04/01 14:42:02;;;;;;;6.63;5.50;;;22.20;14.90;;;;;;5050548;28;20989;-66
2021/04/01 14:44:07;;;;;;;9.60;5.77;;;22.20;14.60;;;;;;5041104;28;20476;-67
2021/04/01 14:46:32;;;;;;;6.73;5.23;;;22.10;15.10;;;;;;5050346;28;20509;-65
2021/04/01 14:49:05;;;;;;;6.00;5.07;;;22.10;13.90;;;;;;5049982;28;20498;-66
2021/04/01 14:51:32;;;;;;;7.20;5.17;;;22.10;14.00;;;;;;5049898;28;20179;-65
2021/04/01 14:54:05;;;;;;;7.63;5.63;;;22.00;13.80;;;;;;5050179;28;20419;-67